Terminal Aerodrome Forecast
Issued by NWS Albany, NY

Home | Current Version | Previous Version | Text Only | Print | Product List | Glossary On
Versions: 1 2 3 4 5 6 7 8 9 10 11 12 13 14 15 16 17 18 19 20 21 22 23 24 25 26 27
014
FTUS41 KALY 301202 AAA
TAFALB
TAF AMD
KALB 301202Z 3012/3112 16012G19KT P6SM OVC012
     FM301600 17012KT P6SM VCSH OVC020
     FM302100 17014G24KT 6SM -SHRA BR VCTS BKN020CB
     FM310200 17008KT P6SM VCSH OVC018
     FM310700 17005KT 5SM BR BKN008 OVC015=

USA.gov is the U.S. government's official web portal to all federal, state and local government web resources and services.